createdAt,value
2022-12-14T00:09:03.297Z,-2.00
2022-12-14T00:13:59.856Z,-2.00
2022-12-14T00:16:28.975Z,-1.90
2022-12-14T00:18:58.986Z,-1.90
2022-12-14T00:21:26.876Z,-1.80
2022-12-14T00:23:55.171Z,-1.80
2022-12-14T00:26:31.154Z,-1.80
2022-12-14T00:28:59.840Z,-1.80
2022-12-14T00:56:06.866Z,-1.70
2022-12-14T01:01:05.937Z,-1.60
2022-12-14T01:11:09.748Z,-1.50
2022-12-14T01:13:38.117Z,-1.50
2022-12-14T01:16:11.443Z,-1.50
2022-12-14T01:18:39.529Z,-1.60
2022-12-14T01:21:16.743Z,-1.50
2022-12-14T01:23:44.943Z,-1.50
2022-12-14T01:26:13.585Z,-1.50
2022-12-14T01:28:41.333Z,-1.50
2022-12-14T01:31:27.030Z,-1.50
2022-12-14T01:33:54.287Z,-1.50
2022-12-14T01:36:29.310Z,-1.40
2022-12-14T01:38:58.965Z,-1.40
2022-12-14T01:41:31.514Z,-1.50
2022-12-14T01:44:03.640Z,-1.40
2022-12-14T01:49:11.092Z,-1.40
2022-12-14T01:51:38.894Z,-1.30
2022-12-14T01:54:09.539Z,0.40
2022-12-14T01:56:39.906Z,-1.20
2022-12-14T01:59:12.336Z,2.40
2022-12-14T02:06:37.682Z,-1.10
2022-12-14T02:09:09.479Z,-1.10
2022-12-14T02:11:46.432Z,-1.10
2022-12-14T02:16:41.077Z,-1.10
2022-12-14T02:21:58.901Z,-1.00
2022-12-14T02:24:49.914Z,-1.10
2022-12-14T02:28:04.982Z,0.60
2022-12-14T02:30:40.621Z,-1.20
2022-12-14T02:33:22.889Z,-1.20
2022-12-14T02:36:07.330Z,-1.20
2022-12-14T02:38:45.764Z,-1.30
2022-12-14T02:41:52.278Z,-0.90
2022-12-14T02:44:46.752Z,-1.40
2022-12-14T02:47:26.344Z,-1.50
2022-12-14T02:50:13.766Z,-1.50
2022-12-14T02:53:04.542Z,-1.50
2022-12-14T02:55:44.170Z,-1.50
2022-12-14T02:58:17.620Z,-1.50
2022-12-14T03:08:12.989Z,1.10
2022-12-14T03:10:44.170Z,-1.20
2022-12-14T03:13:22.274Z,-1.20
2022-12-14T03:16:13.604Z,-1.20
2022-12-14T03:18:54.666Z,-1.20
2022-12-14T03:21:35.213Z,-1.20
2022-12-14T03:24:08.308Z,-1.20
2022-12-14T03:26:45.604Z,-1.20
2022-12-14T03:29:21.354Z,-1.20
2022-12-14T03:32:10.292Z,-1.20
2022-12-14T03:34:52.537Z,-1.20
2022-12-14T03:37:27.555Z,-1.20
2022-12-14T03:42:38.000Z,-1.20
2022-12-14T03:45:11.129Z,-1.20
2022-12-14T03:47:40.737Z,-1.30
2022-12-14T03:50:15.969Z,-1.20
2022-12-14T03:52:53.893Z,-1.20
2022-12-14T03:55:26.768Z,-1.20
2022-12-14T03:58:13.050Z,-1.30
2022-12-14T04:01:00.729Z,-1.30
2022-12-14T04:03:53.951Z,-1.40
2022-12-14T04:06:40.903Z,-1.50
2022-12-14T04:09:33.141Z,-1.60
2022-12-14T04:12:24.196Z,-1.50
2022-12-14T04:15:19.400Z,-1.60
2022-12-14T04:18:07.942Z,-1.80
2022-12-14T04:20:53.177Z,-2.00
2022-12-14T04:23:50.717Z,-2.00
2022-12-14T04:26:22.927Z,-1.90
2022-12-14T04:29:22.075Z,-1.90
2022-12-14T04:31:55.304Z,-1.80
2022-12-14T04:34:24.352Z,-1.80
2022-12-14T04:36:58.441Z,-2.00
2022-12-14T04:39:35.728Z,-1.90
2022-12-14T04:42:05.369Z,-1.80
2022-12-14T04:44:40.056Z,-1.90
2022-12-14T04:47:10.316Z,-1.90
2022-12-14T04:49:45.844Z,-2.00
2022-12-14T04:52:35.017Z,-2.00
2022-12-14T04:55:24.994Z,-2.20
2022-12-14T04:57:57.239Z,-2.20
2022-12-14T05:02:59.628Z,-2.40
2022-12-14T05:05:47.756Z,-2.20
2022-12-14T05:08:36.555Z,-2.20
2022-12-14T05:11:51.548Z,-2.30
2022-12-14T05:14:11.185Z,-2.30
2022-12-14T05:19:09.694Z,-2.40
2022-12-14T05:21:48.934Z,-2.40
2022-12-14T05:24:17.102Z,-2.50
2022-12-14T05:26:44.295Z,-2.70
2022-12-14T05:31:38.368Z,-2.70
2022-12-14T05:51:17.167Z,-2.90
2022-12-14T05:56:12.136Z,-3.00
2022-12-14T06:01:10.621Z,-3.00
2022-12-14T06:06:09.738Z,-3.10
2022-12-14T06:08:39.321Z,-3.10
2022-12-14T06:11:11.309Z,-3.10
2022-12-14T06:13:39.827Z,-3.10
2022-12-14T06:16:08.062Z,-3.10
2022-12-14T06:28:24.391Z,-3.30
2022-12-14T06:33:18.393Z,-3.40
2022-12-14T06:35:46.560Z,-3.40
2022-12-14T06:38:15.028Z,-3.50
2022-12-14T06:48:02.999Z,-3.70
2022-12-14T06:55:25.220Z,-3.70
2022-12-14T06:57:53.269Z,-3.70
2022-12-14T07:00:21.923Z,-3.80
2022-12-14T07:02:49.641Z,-3.90
2022-12-14T07:17:37.025Z,-3.90
2022-12-14T07:20:06.805Z,-3.90
2022-12-14T07:22:34.402Z,-3.90
2022-12-14T08:14:17.647Z,-2.40
2022-12-14T08:24:07.178Z,-2.70
2022-12-14T08:34:01.616Z,-2.50
2022-12-14T08:36:31.035Z,-2.40
2022-12-14T08:38:59.843Z,-2.30
2022-12-14T08:41:27.891Z,-2.30
2022-12-14T08:43:59.787Z,-2.20
2022-12-14T08:46:28.753Z,-2.20
2022-12-14T08:48:56.444Z,-2.10
2022-12-14T08:51:24.451Z,-2.00
2022-12-14T08:56:21.526Z,-2.00
2022-12-14T09:01:32.970Z,-1.90
2022-12-14T09:04:07.525Z,-1.80
2022-12-14T09:06:37.191Z,-1.90
2022-12-14T09:09:15.734Z,-1.80
2022-12-14T09:28:57.888Z,-1.30
2022-12-14T09:31:26.361Z,-1.20
2022-12-14T09:36:24.709Z,-1.10
2022-12-14T09:41:35.201Z,-1.00
2022-12-14T09:44:18.171Z,-1.10
2022-12-14T09:46:58.686Z,-0.90
2022-12-14T09:49:31.472Z,-0.90
2022-12-14T09:52:03.255Z,-0.80
2022-12-14T09:54:37.766Z,-0.80
2022-12-14T09:57:10.141Z,-0.70
2022-12-14T10:02:38.925Z,-0.60
2022-12-14T10:05:24.723Z,-0.70
2022-12-14T10:08:08.680Z,-0.50
2022-12-14T10:11:00.291Z,-0.60
2022-12-14T10:14:02.158Z,-0.70
2022-12-14T10:16:57.588Z,-0.70
2022-12-14T10:19:47.435Z,-0.70
2022-12-14T10:22:18.317Z,-0.70
2022-12-14T10:25:13.735Z,-0.60
2022-12-14T10:28:09.633Z,-0.60
2022-12-14T10:33:05.933Z,-0.50
2022-12-14T10:35:58.935Z,-0.50
2022-12-14T10:38:49.081Z,-0.50
2022-12-14T10:41:49.410Z,-0.50
2022-12-14T10:44:28.668Z,-0.60
2022-12-14T10:47:20.169Z,-0.60
2022-12-14T10:50:14.216Z,-0.70
2022-12-14T10:52:42.833Z,-0.70
2022-12-14T10:55:24.658Z,2.30
2022-12-14T10:57:51.328Z,-0.80
2022-12-14T11:02:55.758Z,-0.90
2022-12-14T11:05:44.738Z,-0.40
2022-12-14T11:08:38.548Z,-1.10
2022-12-14T11:11:18.706Z,-1.00
2022-12-14T11:13:51.129Z,-1.00
2022-12-14T11:16:36.546Z,-1.00
2022-12-14T11:19:06.583Z,-0.80
2022-12-14T11:21:39.362Z,-1.00
2022-12-14T11:24:07.297Z,-0.90
2022-12-14T11:26:37.803Z,-0.90
2022-12-14T11:29:16.139Z,-1.10
2022-12-14T11:31:47.919Z,-1.10
2022-12-14T11:34:33.166Z,-1.10
2022-12-14T11:37:30.670Z,-0.90
2022-12-14T11:40:05.764Z,-0.90
2022-12-14T11:45:25.958Z,-0.80
2022-12-14T11:48:25.812Z,-1.00
2022-12-14T11:50:54.936Z,-1.00
2022-12-14T11:53:23.092Z,-1.10
2022-12-14T11:55:58.647Z,-1.10
2022-12-14T11:58:33.516Z,-0.90
2022-12-14T12:01:11.019Z,-0.80
2022-12-14T12:03:45.074Z,-0.90
2022-12-14T12:06:14.851Z,-0.80
2022-12-14T12:08:43.333Z,-0.90
2022-12-14T12:11:19.413Z,-0.90
2022-12-14T12:13:50.865Z,-0.80
2022-12-14T12:16:21.248Z,-0.80
2022-12-14T12:19:28.917Z,-0.70
2022-12-14T12:21:59.420Z,-0.80
2022-12-14T12:25:00.947Z,-2.10
2022-12-14T12:27:29.220Z,-0.70
2022-12-14T12:30:04.700Z,-0.70
2022-12-14T12:32:37.160Z,-0.80
2022-12-14T12:35:24.245Z,-0.50
2022-12-14T12:38:02.281Z,-0.90
2022-12-14T12:40:33.093Z,-0.50
2022-12-14T12:43:05.591Z,-0.40
2022-12-14T12:48:14.824Z,-0.50
2022-12-14T12:50:50.177Z,-0.40
2022-12-14T12:55:52.069Z,-0.20
2022-12-14T12:58:22.981Z,-0.20
2022-12-14T13:00:55.509Z,-0.20
2022-12-14T13:03:27.871Z,-0.20
2022-12-14T13:06:22.257Z,-0.20
2022-12-14T13:08:56.873Z,-0.20
2022-12-14T13:11:30.865Z,-0.20
2022-12-14T13:14:19.821Z,-0.20
2022-12-14T13:19:50.469Z,-0.20
2022-12-14T13:22:29.460Z,-0.20
2022-12-14T13:25:00.259Z,-0.70
2022-12-14T13:27:57.003Z,-0.10
2022-12-14T13:30:32.233Z,0.00
2022-12-14T13:33:19.919Z,0.00
2022-12-14T13:36:09.733Z,0.00
2022-12-14T13:39:02.288Z,0.00
2022-12-14T13:41:41.585Z,0.00
2022-12-14T13:44:34.447Z,0.00
2022-12-14T13:47:05.661Z,0.00
2022-12-14T13:49:33.287Z,0.00
2022-12-14T13:52:00.594Z,0.00
2022-12-14T13:54:37.346Z,0.10
2022-12-14T13:57:05.786Z,0.00
2022-12-14T13:59:38.451Z,0.10
2022-12-14T14:02:06.598Z,0.00
2022-12-14T14:04:35.632Z,0.00
2022-12-14T14:07:24.150Z,0.00
2022-12-14T14:10:02.010Z,0.00
2022-12-14T14:12:40.555Z,0.00
2022-12-14T14:15:38.166Z,0.10
2022-12-14T14:18:13.545Z,0.00
2022-12-14T14:20:44.403Z,-0.10
2022-12-14T14:23:13.790Z,0.00
2022-12-14T14:25:51.588Z,0.10
2022-12-14T14:28:22.982Z,0.10
2022-12-14T14:30:54.333Z,0.10
2022-12-14T14:33:44.746Z,0.00
2022-12-14T14:36:26.941Z,0.10
2022-12-14T14:38:55.880Z,-0.10
2022-12-14T14:41:31.897Z,-1.80
2022-12-14T14:44:03.141Z,0.00
2022-12-14T14:46:49.474Z,0.10
2022-12-14T14:49:24.449Z,0.00
2022-12-14T14:51:52.702Z,0.00
2022-12-14T14:57:33.930Z,-0.10
2022-12-14T15:00:02.572Z,-0.20
2022-12-14T15:02:39.196Z,-0.20
2022-12-14T15:07:59.582Z,-0.10
2022-12-14T15:10:45.971Z,-0.10
2022-12-14T15:13:23.429Z,-0.10
2022-12-14T15:15:53.084Z,0.30
2022-12-14T15:18:27.671Z,0.00
2022-12-14T15:20:58.953Z,-0.20
2022-12-14T15:23:33.275Z,-0.10
2022-12-14T15:26:02.502Z,-0.20
2022-12-14T15:28:30.017Z,-0.20
2022-12-14T15:30:58.248Z,-0.20
2022-12-14T15:33:33.232Z,-0.10
2022-12-14T15:36:12.299Z,-0.20
2022-12-14T15:41:14.981Z,-0.10
2022-12-14T15:43:46.576Z,-0.10
2022-12-14T15:46:33.863Z,-0.10
2022-12-14T15:49:03.768Z,-0.10
2022-12-14T15:51:37.325Z,-0.30
2022-12-14T15:54:06.550Z,-0.20
2022-12-14T15:56:36.966Z,-0.40
2022-12-14T15:59:27.426Z,-0.30
2022-12-14T16:02:07.293Z,-0.40
2022-12-14T16:04:36.820Z,-0.50
2022-12-14T16:07:09.398Z,-0.70
2022-12-14T16:09:41.764Z,-0.50
2022-12-14T16:12:14.138Z,-0.50
2022-12-14T16:17:14.213Z,-0.60
2022-12-14T16:19:58.519Z,-0.70
2022-12-14T16:22:31.807Z,-0.70
2022-12-14T16:25:07.785Z,-0.80
2022-12-14T16:27:39.485Z,1.40
2022-12-14T16:30:20.240Z,-1.00
2022-12-14T16:32:49.953Z,-1.00
2022-12-14T16:35:23.413Z,-1.00
2022-12-14T16:37:57.866Z,-1.00
2022-12-14T16:40:35.307Z,-2.10
2022-12-14T16:43:04.931Z,-3.20
2022-12-14T16:45:46.083Z,-1.10
2022-12-14T16:50:58.098Z,-1.20
2022-12-14T16:53:31.842Z,-1.50
2022-12-14T16:56:17.804Z,-1.30
2022-12-14T16:59:06.224Z,-1.30
2022-12-14T17:01:46.921Z,-1.30
2022-12-14T17:04:18.915Z,-1.50
2022-12-14T17:06:52.093Z,-1.40
2022-12-14T17:09:20.814Z,-1.50
2022-12-14T17:11:48.312Z,-1.60
2022-12-14T17:14:16.481Z,-1.60
2022-12-14T17:16:45.618Z,-1.60
2022-12-14T17:19:38.794Z,-1.70
2022-12-14T17:22:12.211Z,-1.70
2022-12-14T17:29:33.683Z,-1.90
2022-12-14T17:36:57.777Z,-2.00
2022-12-14T17:41:52.162Z,-2.50
2022-12-14T17:44:21.352Z,-2.20
2022-12-14T17:51:45.820Z,-2.50
2022-12-14T17:54:15.972Z,-2.40
2022-12-14T17:56:44.833Z,-2.60
2022-12-14T18:01:39.940Z,-2.60
2022-12-14T18:11:29.440Z,-2.70
2022-12-14T18:16:24.328Z,-2.10
2022-12-14T18:18:53.936Z,-3.00
2022-12-14T18:21:29.427Z,-3.10
2022-12-14T18:23:56.673Z,-3.20
2022-12-14T18:26:23.955Z,-3.20
2022-12-14T18:28:52.844Z,-3.30
2022-12-14T18:31:23.819Z,-3.20
2022-12-14T18:41:22.457Z,-3.40
2022-12-14T18:43:49.612Z,-3.40
2022-12-14T18:51:16.712Z,-3.40
2022-12-14T18:56:11.701Z,-3.60
2022-12-14T18:58:41.840Z,-3.70
2022-12-14T19:01:14.673Z,-3.80
2022-12-14T19:03:42.584Z,-3.80
2022-12-14T19:13:57.801Z,-4.10
2022-12-14T19:16:25.253Z,-4.00
2022-12-14T19:31:10.720Z,-4.10
2022-12-14T19:36:06.437Z,-3.50
2022-12-14T19:38:35.448Z,-4.00
2022-12-14T19:41:10.037Z,-4.30
2022-12-14T19:46:08.149Z,-4.20
2022-12-14T19:51:06.899Z,-4.20
2022-12-14T19:53:35.160Z,-8.00
2022-12-14T20:00:57.339Z,-4.50
2022-12-14T20:05:58.423Z,-4.60
2022-12-14T20:08:27.720Z,-4.60
2022-12-14T20:13:23.859Z,-4.60
2022-12-14T20:15:53.019Z,-4.70
2022-12-14T20:18:21.171Z,-4.60
2022-12-14T20:25:44.707Z,-4.70
2022-12-14T20:30:46.210Z,-4.80
2022-12-14T20:33:13.760Z,-4.80
2022-12-14T20:40:39.085Z,-4.80
2022-12-14T20:43:06.940Z,-4.90
2022-12-14T20:45:41.661Z,-4.90
2022-12-14T20:48:08.883Z,-4.80
2022-12-14T20:50:37.491Z,-5.00
2022-12-14T20:53:04.752Z,-5.00
2022-12-14T20:57:58.784Z,-5.10
2022-12-14T21:12:41.920Z,-5.60
2022-12-14T21:27:35.292Z,-5.50
2022-12-14T21:32:29.852Z,-5.70
2022-12-14T21:39:55.166Z,-5.50
2022-12-14T21:42:25.778Z,-5.60
2022-12-14T21:44:53.580Z,-5.70
2022-12-14T21:47:26.191Z,-5.70
2022-12-14T21:49:53.251Z,-5.70
2022-12-14T21:52:22.769Z,-5.70
2022-12-14T21:57:41.763Z,-5.80
2022-12-14T22:00:10.212Z,-5.80
2022-12-14T22:19:54.088Z,-5.80
2022-12-14T22:24:49.640Z,-5.90
2022-12-14T22:32:14.580Z,-6.10
2022-12-14T22:54:22.283Z,-8.40
2022-12-14T22:56:56.690Z,-6.30
2022-12-14T22:59:30.269Z,-6.50
2022-12-14T23:23:27.778Z,-6.90
2022-12-14T23:26:13.496Z,-6.80
2022-12-14T23:51:10.517Z,-6.90
